CCA1281 ZBAA-ZLIC
Flight info
| Callsign | CCA1281 |
|---|---|
| Flight time | 1h 29m |
| Altitude | 27600 |
| Route | BOTPU W47 IDSOT W48 MAKIP H53 MULOB W220 NIRUV B215 YHD |
| Aircraft | B738/M-SDE2E3FGHIRWXY/LB1 |
Departure
| Time | 2026-05-05 07:48 |
|---|---|
| Airport | Beijing Capital International Airport (ZBAA) |
Arrival
| Time | 2026-05-05 09:17 |
|---|---|
| Airport | Yinchuan Hedong International Airport (ZLIC) |
| Time | Latitude | Longitude | Altitude | Speed | Heading |
|---|---|---|---|---|---|
| 2026-05-05 07:32 | 40.08274 | 116.59080 | 123 ft | 0 kts | 233° |
| 2026-05-05 07:41 | 40.08277 | 116.59086 | 123 ft | 2 kts | 233° |
| 2026-05-05 07:41 | 40.08289 | 116.59106 | 121 ft | 3 kts | 233° |
| 2026-05-05 07:42 | 40.08299 | 116.59123 | 122 ft | 3 kts | 237° |
| 2026-05-05 07:42 | 40.08306 | 116.59145 | 122 ft | 3 kts | 273° |
| 2026-05-05 07:42 | 40.08301 | 116.59165 | 123 ft | 3 kts | 322° |
| 2026-05-05 07:42 | 40.08284 | 116.59177 | 119 ft | 3 kts | 344° |
| 2026-05-05 07:43 | 40.08267 | 116.59181 | 130 ft | 1 kts | 353° |
| 2026-05-05 07:43 | 40.08254 | 116.59183 | 121 ft | 3 kts | 353° |
| 2026-05-05 07:43 | 40.08242 | 116.59185 | 122 ft | 0 kts | 353° |
| 2026-05-05 07:44 | 40.08260 | 116.59184 | 121 ft | 5 kts | 3° |
| 2026-05-05 07:44 | 40.08291 | 116.59230 | 122 ft | 9 kts | 77° |
| 2026-05-05 07:45 | 40.08335 | 116.59286 | 121 ft | 11 kts | 5° |
| 2026-05-05 07:45 | 40.08418 | 116.59275 | 121 ft | 13 kts | 353° |
| 2026-05-05 07:45 | 40.08522 | 116.59258 | 120 ft | 17 kts | 353° |
| 2026-05-05 07:45 | 40.08643 | 116.59239 | 121 ft | 17 kts | 353° |
| 2026-05-05 07:46 | 40.08759 | 116.59222 | 122 ft | 16 kts | 353° |
| 2026-05-05 07:46 | 40.08865 | 116.59205 | 119 ft | 15 kts | 353° |
| 2026-05-05 07:46 | 40.08956 | 116.59233 | 121 ft | 14 kts | 41° |
| 2026-05-05 07:46 | 40.08979 | 116.59344 | 124 ft | 13 kts | 104° |
| 2026-05-05 07:47 | 40.08929 | 116.59436 | 122 ft | 12 kts | 133° |
| 2026-05-05 07:47 | 40.08861 | 116.59496 | 121 ft | 12 kts | 168° |
| 2026-05-05 07:47 | 40.08832 | 116.59501 | 124 ft | 0 kts | 173° |
| 2026-05-05 07:47 | 40.08803 | 116.59506 | 121 ft | 23 kts | 173° |
| 2026-05-05 07:48 | 40.08393 | 116.59570 | 123 ft | 94 kts | 173° |
| 2026-05-05 07:48 | 40.07535 | 116.59704 | 123 ft | 152 kts | 173° |
| 2026-05-05 07:48 | 40.06384 | 116.59895 | 474 ft | 174 kts | 173° |
| 2026-05-05 07:48 | 40.05167 | 116.60079 | 1223 ft | 178 kts | 175° |
| 2026-05-05 07:49 | 40.03937 | 116.60251 | 2100 ft | 177 kts | 174° |
| 2026-05-05 07:49 | 40.02638 | 116.60451 | 2562 ft | 202 kts | 174° |
| 2026-05-05 07:49 | 40.01159 | 116.60688 | 2868 ft | 223 kts | 174° |
| 2026-05-05 07:49 | 39.99600 | 116.60936 | 3487 ft | 227 kts | 175° |
| 2026-05-05 07:50 | 39.97982 | 116.61189 | 4022 ft | 240 kts | 176° |
| 2026-05-05 07:50 | 39.96317 | 116.61452 | 4869 ft | 241 kts | 177° |
| 2026-05-05 07:50 | 39.94637 | 116.61715 | 5659 ft | 246 kts | 178° |
| 2026-05-05 07:50 | 39.92914 | 116.61983 | 6353 ft | 253 kts | 178° |
| 2026-05-05 07:51 | 39.91171 | 116.62255 | 7041 ft | 258 kts | 178° |
| 2026-05-05 07:51 | 39.89364 | 116.62537 | 7730 ft | 264 kts | 178° |
| 2026-05-05 07:51 | 39.87518 | 116.62825 | 8442 ft | 270 kts | 177° |
| 2026-05-05 07:51 | 39.85629 | 116.63118 | 9150 ft | 277 kts | 177° |
| 2026-05-05 07:52 | 39.83698 | 116.63418 | 9831 ft | 282 kts | 177° |
| 2026-05-05 07:52 | 39.81732 | 116.63720 | 10506 ft | 287 kts | 177° |
| 2026-05-05 07:52 | 39.79705 | 116.64026 | 10747 ft | 309 kts | 177° |
| 2026-05-05 07:52 | 39.77489 | 116.64361 | 10931 ft | 332 kts | 176° |
| 2026-05-05 07:53 | 39.75154 | 116.64716 | 11104 ft | 353 kts | 176° |
| 2026-05-05 07:53 | 39.72669 | 116.65084 | 11510 ft | 363 kts | 179° |
| 2026-05-05 07:53 | 39.70175 | 116.64767 | 12082 ft | 362 kts | 200° |
| 2026-05-05 07:53 | 39.67963 | 116.63275 | 12765 ft | 359 kts | 221° |
| 2026-05-05 07:54 | 39.66308 | 116.60881 | 13398 ft | 358 kts | 240° |
| 2026-05-05 07:54 | 39.65333 | 116.57911 | 13966 ft | 360 kts | 259° |
| 2026-05-05 07:54 | 39.65011 | 116.54691 | 14593 ft | 361 kts | 265° |
| 2026-05-05 07:54 | 39.64814 | 116.51429 | 15200 ft | 364 kts | 266° |
| 2026-05-05 07:55 | 39.64638 | 116.48135 | 15784 ft | 368 kts | 266° |
| 2026-05-05 07:55 | 39.64458 | 116.44859 | 16380 ft | 371 kts | 266° |
| 2026-05-05 07:55 | 39.64261 | 116.41516 | 16974 ft | 373 kts | 266° |
| 2026-05-05 07:55 | 39.64053 | 116.38146 | 17568 ft | 376 kts | 266° |
| 2026-05-05 07:56 | 39.63901 | 116.35771 | 17971 ft | 378 kts | 265° |
| 2026-05-05 07:56 | 39.63680 | 116.32358 | 18463 ft | 381 kts | 265° |
| 2026-05-05 07:56 | 39.63454 | 116.28923 | 18972 ft | 383 kts | 266° |
| 2026-05-05 07:56 | 39.63226 | 116.25469 | 19495 ft | 385 kts | 266° |
| 2026-05-05 07:57 | 39.62996 | 116.21994 | 20027 ft | 387 kts | 266° |
| 2026-05-05 07:57 | 39.62763 | 116.18505 | 20517 ft | 390 kts | 266° |
| 2026-05-05 07:57 | 39.62530 | 116.15036 | 20995 ft | 392 kts | 266° |
| 2026-05-05 07:57 | 39.62292 | 116.11501 | 21477 ft | 395 kts | 266° |
| 2026-05-05 07:58 | 39.62052 | 116.07944 | 21955 ft | 397 kts | 266° |
| 2026-05-05 07:58 | 39.61809 | 116.04367 | 22424 ft | 399 kts | 266° |
| 2026-05-05 07:58 | 39.61564 | 116.00769 | 22875 ft | 402 kts | 266° |
| 2026-05-05 07:58 | 39.61317 | 115.97151 | 23313 ft | 404 kts | 266° |
| 2026-05-05 07:59 | 39.61067 | 115.93514 | 23688 ft | 406 kts | 266° |
| 2026-05-05 07:59 | 39.60815 | 115.89859 | 24058 ft | 408 kts | 266° |
| 2026-05-05 07:59 | 39.60572 | 115.86183 | 24415 ft | 410 kts | 270° |
| 2026-05-05 07:59 | 39.60810 | 115.82568 | 24749 ft | 409 kts | 284° |
| 2026-05-05 08:00 | 39.61776 | 115.79108 | 25128 ft | 410 kts | 297° |
| 2026-05-05 08:00 | 39.63147 | 115.75869 | 25511 ft | 410 kts | 299° |
| 2026-05-05 08:00 | 39.64552 | 115.72637 | 25861 ft | 412 kts | 299° |
| 2026-05-05 08:00 | 39.65933 | 115.69377 | 26190 ft | 413 kts | 298° |
| 2026-05-05 08:01 | 39.67494 | 115.66256 | 26555 ft | 414 kts | 310° |
| 2026-05-05 08:01 | 39.69601 | 115.63722 | 27042 ft | 414 kts | 323° |
| 2026-05-05 08:01 | 39.72078 | 115.61911 | 27279 ft | 417 kts | 333° |
| 2026-05-05 08:01 | 39.74745 | 115.60425 | 27296 ft | 417 kts | 335° |
| 2026-05-05 08:02 | 39.77449 | 115.59016 | 27288 ft | 421 kts | 335° |
| 2026-05-05 08:02 | 39.80187 | 115.57586 | 27296 ft | 427 kts | 335° |
| 2026-05-05 08:02 | 39.82947 | 115.56111 | 27294 ft | 431 kts | 334° |
| 2026-05-05 08:02 | 39.85719 | 115.54599 | 27288 ft | 431 kts | 334° |
| 2026-05-05 08:03 | 39.88479 | 115.53075 | 27286 ft | 430 kts | 334° |
| 2026-05-05 08:03 | 39.91229 | 115.51552 | 27271 ft | 430 kts | 334° |
| 2026-05-05 08:03 | 39.93910 | 115.49859 | 27257 ft | 426 kts | 324° |
| 2026-05-05 08:03 | 39.96107 | 115.47315 | 27286 ft | 422 kts | 309° |
| 2026-05-05 08:04 | 39.97718 | 115.44187 | 27283 ft | 421 kts | 297° |
| 2026-05-05 08:04 | 39.98805 | 115.40646 | 27267 ft | 423 kts | 285° |
| 2026-05-05 08:04 | 39.99232 | 115.36846 | 27283 ft | 425 kts | 277° |
| 2026-05-05 08:04 | 39.99442 | 115.33004 | 27277 ft | 426 kts | 275° |
| 2026-05-05 08:05 | 39.99604 | 115.29146 | 27276 ft | 426 kts | 275° |
| 2026-05-05 08:05 | 39.99758 | 115.25283 | 27279 ft | 426 kts | 275° |
| 2026-05-05 08:05 | 39.99864 | 115.22723 | 27278 ft | 427 kts | 275° |
| 2026-05-05 08:05 | 40.00090 | 115.17602 | 27279 ft | 427 kts | 275° |
| 2026-05-05 08:06 | 40.00273 | 115.13734 | 27261 ft | 428 kts | 275° |
| 2026-05-05 08:06 | 40.00462 | 115.09859 | 27271 ft | 428 kts | 275° |
| 2026-05-05 08:06 | 40.00653 | 115.05981 | 27262 ft | 429 kts | 275° |
| 2026-05-05 08:06 | 40.00845 | 115.02097 | 27257 ft | 429 kts | 275° |
| 2026-05-05 08:07 | 40.01037 | 114.98217 | 27251 ft | 429 kts | 275° |
| 2026-05-05 08:07 | 40.01162 | 114.95645 | 27253 ft | 428 kts | 275° |
| 2026-05-05 08:07 | 40.01351 | 114.91773 | 27250 ft | 428 kts | 275° |
| 2026-05-05 08:07 | 40.01537 | 114.87905 | 27236 ft | 427 kts | 275° |
| 2026-05-05 08:08 | 40.01781 | 114.82796 | 27242 ft | 425 kts | 275° |
| 2026-05-05 08:08 | 40.01964 | 114.78948 | 27238 ft | 424 kts | 275° |
| 2026-05-05 08:08 | 40.02144 | 114.75115 | 27236 ft | 424 kts | 275° |
| 2026-05-05 08:08 | 40.02323 | 114.71280 | 27232 ft | 423 kts | 275° |
| 2026-05-05 08:09 | 40.02441 | 114.68745 | 27226 ft | 423 kts | 275° |
| 2026-05-05 08:09 | 40.02618 | 114.64922 | 27225 ft | 422 kts | 275° |
| 2026-05-05 08:09 | 40.02793 | 114.61105 | 27224 ft | 422 kts | 275° |
| 2026-05-05 08:09 | 40.02967 | 114.57284 | 27222 ft | 422 kts | 275° |
| 2026-05-05 08:10 | 40.03139 | 114.53467 | 27206 ft | 422 kts | 275° |
| 2026-05-05 08:10 | 40.03366 | 114.48413 | 27220 ft | 421 kts | 275° |
| 2026-05-05 08:10 | 40.03480 | 114.45835 | 27222 ft | 421 kts | 275° |
| 2026-05-05 08:10 | 40.03649 | 114.42012 | 27220 ft | 422 kts | 275° |
| 2026-05-05 08:11 | 40.03815 | 114.38237 | 27215 ft | 423 kts | 275° |
| 2026-05-05 08:11 | 40.03982 | 114.34402 | 27207 ft | 424 kts | 275° |
| 2026-05-05 08:11 | 40.04148 | 114.30565 | 27211 ft | 424 kts | 275° |
| 2026-05-05 08:11 | 40.04313 | 114.26726 | 27207 ft | 424 kts | 275° |
| 2026-05-05 08:12 | 40.04476 | 114.22888 | 27205 ft | 424 kts | 275° |
| 2026-05-05 08:12 | 40.04639 | 114.19051 | 27206 ft | 423 kts | 275° |
| 2026-05-05 08:12 | 40.04800 | 114.15214 | 27209 ft | 423 kts | 275° |
| 2026-05-05 08:12 | 40.04991 | 114.11390 | 27213 ft | 422 kts | 276° |
| 2026-05-05 08:13 | 40.05253 | 114.07625 | 27211 ft | 422 kts | 277° |
| 2026-05-05 08:13 | 40.05549 | 114.03821 | 27213 ft | 422 kts | 277° |
| 2026-05-05 08:13 | 40.05852 | 114.00010 | 27218 ft | 421 kts | 277° |
| 2026-05-05 08:13 | 40.06150 | 113.96210 | 27205 ft | 421 kts | 277° |
| 2026-05-05 08:14 | 40.06441 | 113.92403 | 27217 ft | 421 kts | 277° |
| 2026-05-05 08:14 | 40.06725 | 113.88596 | 27205 ft | 421 kts | 276° |
| 2026-05-05 08:14 | 40.07004 | 113.84791 | 27218 ft | 421 kts | 276° |
| 2026-05-05 08:14 | 40.07279 | 113.80986 | 27216 ft | 421 kts | 276° |
| 2026-05-05 08:15 | 40.07548 | 113.77228 | 27222 ft | 421 kts | 276° |
| 2026-05-05 08:15 | 40.07819 | 113.73422 | 27217 ft | 421 kts | 276° |
| 2026-05-05 08:15 | 40.08089 | 113.69610 | 27219 ft | 421 kts | 276° |
| 2026-05-05 08:15 | 40.08357 | 113.65802 | 27210 ft | 422 kts | 276° |
| 2026-05-05 08:16 | 40.08625 | 113.61990 | 27217 ft | 422 kts | 276° |
| 2026-05-05 08:16 | 40.08891 | 113.58175 | 27222 ft | 422 kts | 276° |
| 2026-05-05 08:16 | 40.09156 | 113.54363 | 27220 ft | 422 kts | 276° |
| 2026-05-05 08:16 | 40.09420 | 113.50548 | 27219 ft | 422 kts | 276° |
| 2026-05-05 08:17 | 40.09680 | 113.46782 | 27224 ft | 422 kts | 276° |
| 2026-05-05 08:17 | 40.09941 | 113.42969 | 27219 ft | 422 kts | 276° |
| 2026-05-05 08:17 | 40.10202 | 113.39151 | 27222 ft | 422 kts | 276° |
| 2026-05-05 08:17 | 40.10461 | 113.35333 | 27224 ft | 422 kts | 276° |
| 2026-05-05 08:18 | 40.10719 | 113.31518 | 27225 ft | 422 kts | 276° |
| 2026-05-05 08:18 | 40.10976 | 113.27695 | 27230 ft | 422 kts | 276° |
| 2026-05-05 08:18 | 40.11231 | 113.23879 | 27226 ft | 422 kts | 276° |
| 2026-05-05 08:18 | 40.11485 | 113.20060 | 27228 ft | 422 kts | 276° |
| 2026-05-05 08:19 | 40.11738 | 113.16239 | 27242 ft | 422 kts | 276° |
| 2026-05-05 08:19 | 40.11987 | 113.12471 | 27244 ft | 422 kts | 276° |
| 2026-05-05 08:19 | 40.12237 | 113.08650 | 27237 ft | 422 kts | 276° |
| 2026-05-05 08:19 | 40.12487 | 113.04828 | 27239 ft | 422 kts | 276° |
| 2026-05-05 08:20 | 40.12735 | 113.01008 | 27249 ft | 422 kts | 276° |
| 2026-05-05 08:20 | 40.12981 | 112.97189 | 27259 ft | 422 kts | 276° |
| 2026-05-05 08:20 | 40.13227 | 112.93368 | 27264 ft | 422 kts | 276° |
| 2026-05-05 08:20 | 40.13471 | 112.89548 | 27263 ft | 422 kts | 276° |
| 2026-05-05 08:21 | 40.13713 | 112.85732 | 27270 ft | 422 kts | 276° |
| 2026-05-05 08:21 | 40.13952 | 112.81962 | 27276 ft | 422 kts | 276° |
| 2026-05-05 08:21 | 40.14193 | 112.78136 | 27270 ft | 422 kts | 276° |
| 2026-05-05 08:21 | 40.14432 | 112.74318 | 27276 ft | 422 kts | 276° |
| 2026-05-05 08:22 | 40.14669 | 112.70501 | 27281 ft | 422 kts | 276° |
| 2026-05-05 08:22 | 40.14906 | 112.66678 | 27290 ft | 422 kts | 276° |
| 2026-05-05 08:22 | 40.15141 | 112.62863 | 27294 ft | 422 kts | 276° |
| 2026-05-05 08:22 | 40.15376 | 112.59038 | 27294 ft | 422 kts | 276° |
| 2026-05-05 08:23 | 40.15610 | 112.55211 | 27289 ft | 422 kts | 276° |
| 2026-05-05 08:23 | 40.15839 | 112.51435 | 27299 ft | 423 kts | 275° |
| 2026-05-05 08:23 | 40.15871 | 112.47595 | 27294 ft | 424 kts | 268° |
| 2026-05-05 08:23 | 40.15505 | 112.43761 | 27294 ft | 426 kts | 262° |
| 2026-05-05 08:24 | 40.14752 | 112.40009 | 27294 ft | 429 kts | 253° |
| 2026-05-05 08:24 | 40.13721 | 112.36345 | 27300 ft | 429 kts | 252° |
| 2026-05-05 08:24 | 40.12670 | 112.32690 | 27290 ft | 430 kts | 252° |
| 2026-05-05 08:24 | 40.11626 | 112.29038 | 27296 ft | 429 kts | 253° |
| 2026-05-05 08:25 | 40.10595 | 112.25380 | 27301 ft | 429 kts | 253° |
| 2026-05-05 08:25 | 40.09571 | 112.21717 | 27299 ft | 429 kts | 253° |
| 2026-05-05 08:25 | 40.08564 | 112.18106 | 27302 ft | 429 kts | 253° |
| 2026-05-05 08:25 | 40.07541 | 112.14449 | 27301 ft | 429 kts | 253° |
| 2026-05-05 08:26 | 40.06808 | 112.11835 | 27295 ft | 429 kts | 253° |
| 2026-05-05 08:26 | 40.05784 | 112.08185 | 27299 ft | 428 kts | 253° |
| 2026-05-05 08:26 | 40.04759 | 112.04536 | 27292 ft | 428 kts | 253° |
| 2026-05-05 08:26 | 40.03732 | 112.00886 | 27306 ft | 428 kts | 253° |
| 2026-05-05 08:27 | 40.02704 | 111.97235 | 27305 ft | 429 kts | 253° |
| 2026-05-05 08:27 | 40.01673 | 111.93581 | 27288 ft | 429 kts | 253° |
| 2026-05-05 08:27 | 40.00654 | 111.89980 | 27290 ft | 430 kts | 252° |
| 2026-05-05 08:27 | 39.99350 | 111.86452 | 27286 ft | 434 kts | 243° |
| 2026-05-05 08:28 | 39.97640 | 111.83184 | 27295 ft | 438 kts | 236° |
| 2026-05-05 08:28 | 39.95623 | 111.80186 | 27283 ft | 444 kts | 228° |
| 2026-05-05 08:28 | 39.93285 | 111.77537 | 27300 ft | 446 kts | 224° |
| 2026-05-05 08:28 | 39.90886 | 111.74963 | 27284 ft | 447 kts | 224° |
| 2026-05-05 08:29 | 39.88475 | 111.72405 | 27284 ft | 447 kts | 224° |
| 2026-05-05 08:29 | 39.86062 | 111.69844 | 27283 ft | 448 kts | 224° |
| 2026-05-05 08:29 | 39.83687 | 111.67311 | 27280 ft | 448 kts | 224° |
| 2026-05-05 08:30 | 39.78887 | 111.62157 | 27274 ft | 447 kts | 224° |
| 2026-05-05 08:30 | 39.76492 | 111.59575 | 27268 ft | 447 kts | 224° |
| 2026-05-05 08:30 | 39.74101 | 111.56999 | 27272 ft | 447 kts | 224° |
| 2026-05-05 08:30 | 39.71709 | 111.54422 | 27257 ft | 447 kts | 224° |
| 2026-05-05 08:31 | 39.69317 | 111.51848 | 27263 ft | 446 kts | 224° |
| 2026-05-05 08:31 | 39.66931 | 111.49282 | 27263 ft | 446 kts | 224° |
| 2026-05-05 08:31 | 39.64536 | 111.46710 | 27257 ft | 446 kts | 224° |
| 2026-05-05 08:31 | 39.62176 | 111.44178 | 27255 ft | 447 kts | 224° |
| 2026-05-05 08:32 | 39.59779 | 111.41609 | 27249 ft | 447 kts | 224° |
| 2026-05-05 08:32 | 39.57381 | 111.39041 | 27243 ft | 447 kts | 224° |
| 2026-05-05 08:32 | 39.54986 | 111.36479 | 27246 ft | 446 kts | 224° |
| 2026-05-05 08:32 | 39.52590 | 111.33919 | 27248 ft | 446 kts | 224° |
| 2026-05-05 08:33 | 39.50195 | 111.31362 | 27238 ft | 447 kts | 224° |
| 2026-05-05 08:33 | 39.47841 | 111.28850 | 27242 ft | 446 kts | 224° |
| 2026-05-05 08:33 | 39.45444 | 111.26295 | 27236 ft | 446 kts | 224° |
| 2026-05-05 08:33 | 39.44221 | 111.24993 | 27230 ft | 446 kts | 224° |
| 2026-05-05 08:34 | 39.42508 | 111.23169 | 27230 ft | 447 kts | 224° |
| 2026-05-05 08:34 | 39.40109 | 111.20616 | 27229 ft | 447 kts | 224° |
| 2026-05-05 08:34 | 39.37708 | 111.18064 | 27233 ft | 447 kts | 224° |
| 2026-05-05 08:34 | 39.35302 | 111.15510 | 27223 ft | 448 kts | 224° |
| 2026-05-05 08:35 | 39.32896 | 111.12957 | 27217 ft | 448 kts | 224° |
| 2026-05-05 08:35 | 39.30484 | 111.10401 | 27222 ft | 448 kts | 224° |
| 2026-05-05 08:35 | 39.28076 | 111.07851 | 27225 ft | 449 kts | 224° |
| 2026-05-05 08:35 | 39.25694 | 111.05329 | 27209 ft | 449 kts | 224° |
| 2026-05-05 08:36 | 39.23276 | 111.02774 | 27205 ft | 449 kts | 224° |
| 2026-05-05 08:36 | 39.20859 | 111.00222 | 27213 ft | 449 kts | 224° |
| 2026-05-05 08:36 | 39.18592 | 110.97493 | 27191 ft | 442 kts | 237° |
| 2026-05-05 08:36 | 39.17052 | 110.94136 | 27219 ft | 433 kts | 251° |
| 2026-05-05 08:37 | 39.16208 | 110.90645 | 27211 ft | 428 kts | 262° |
| 2026-05-05 08:37 | 39.16011 | 110.86852 | 27219 ft | 424 kts | 274° |
| 2026-05-05 08:37 | 39.16170 | 110.83113 | 27213 ft | 424 kts | 275° |
| 2026-05-05 08:37 | 39.16386 | 110.79327 | 27209 ft | 424 kts | 276° |
| 2026-05-05 08:38 | 39.16611 | 110.75538 | 27200 ft | 425 kts | 276° |
| 2026-05-05 08:38 | 39.16826 | 110.71740 | 27199 ft | 425 kts | 275° |
| 2026-05-05 08:38 | 39.17027 | 110.67946 | 27203 ft | 425 kts | 275° |
| 2026-05-05 08:38 | 39.17216 | 110.64152 | 27198 ft | 425 kts | 275° |
| 2026-05-05 08:39 | 39.17396 | 110.60358 | 27193 ft | 424 kts | 275° |
| 2026-05-05 08:39 | 39.17572 | 110.56564 | 27193 ft | 424 kts | 275° |
| 2026-05-05 08:39 | 39.17745 | 110.52772 | 27198 ft | 423 kts | 275° |
| 2026-05-05 08:39 | 39.17914 | 110.49037 | 27194 ft | 423 kts | 275° |
| 2026-05-05 08:40 | 39.18085 | 110.45252 | 27187 ft | 423 kts | 275° |
| 2026-05-05 08:40 | 39.18254 | 110.41472 | 27189 ft | 422 kts | 275° |
| 2026-05-05 08:40 | 39.18422 | 110.37696 | 27181 ft | 422 kts | 275° |
| 2026-05-05 08:40 | 39.18589 | 110.33928 | 27183 ft | 421 kts | 275° |
| 2026-05-05 08:41 | 39.18754 | 110.30157 | 27186 ft | 421 kts | 275° |
| 2026-05-05 08:41 | 39.18919 | 110.26386 | 27183 ft | 421 kts | 275° |
| 2026-05-05 08:41 | 39.19083 | 110.22616 | 27177 ft | 421 kts | 275° |
| 2026-05-05 08:41 | 39.19243 | 110.18902 | 27172 ft | 421 kts | 275° |
| 2026-05-05 08:42 | 39.19405 | 110.15136 | 27174 ft | 420 kts | 275° |
| 2026-05-05 08:42 | 39.19579 | 110.11377 | 27171 ft | 420 kts | 275° |
| 2026-05-05 08:42 | 39.19762 | 110.07617 | 27174 ft | 420 kts | 275° |
| 2026-05-05 08:42 | 39.19947 | 110.03857 | 27174 ft | 420 kts | 275° |
| 2026-05-05 08:43 | 39.20131 | 110.00100 | 27165 ft | 420 kts | 275° |
| 2026-05-05 08:43 | 39.20312 | 109.96342 | 27166 ft | 420 kts | 275° |
| 2026-05-05 08:43 | 39.20488 | 109.92634 | 27163 ft | 420 kts | 275° |
| 2026-05-05 08:43 | 39.20665 | 109.88877 | 27165 ft | 420 kts | 275° |
| 2026-05-05 08:44 | 39.20840 | 109.85118 | 27163 ft | 420 kts | 275° |
| 2026-05-05 08:44 | 39.21013 | 109.81367 | 27161 ft | 420 kts | 275° |
| 2026-05-05 08:44 | 39.21186 | 109.77608 | 27159 ft | 420 kts | 275° |
| 2026-05-05 08:44 | 39.21357 | 109.73851 | 27153 ft | 420 kts | 275° |
| 2026-05-05 08:45 | 39.21527 | 109.70093 | 27157 ft | 420 kts | 275° |
| 2026-05-05 08:45 | 39.21695 | 109.66339 | 27160 ft | 420 kts | 275° |
| 2026-05-05 08:45 | 39.21863 | 109.62582 | 27155 ft | 419 kts | 275° |
| 2026-05-05 08:45 | 39.22030 | 109.58826 | 27156 ft | 419 kts | 275° |
| 2026-05-05 08:46 | 39.22193 | 109.55126 | 27154 ft | 419 kts | 275° |
| 2026-05-05 08:46 | 39.22351 | 109.51502 | 27153 ft | 419 kts | 275° |
| 2026-05-05 08:46 | 39.22510 | 109.47747 | 27157 ft | 419 kts | 275° |
| 2026-05-05 08:46 | 39.22659 | 109.43993 | 27149 ft | 419 kts | 275° |
| 2026-05-05 08:47 | 39.22801 | 109.40239 | 27148 ft | 419 kts | 275° |
| 2026-05-05 08:47 | 39.22942 | 109.36486 | 27148 ft | 419 kts | 275° |
| 2026-05-05 08:47 | 39.23082 | 109.32738 | 27146 ft | 419 kts | 275° |
| 2026-05-05 08:47 | 39.23221 | 109.28989 | 27146 ft | 418 kts | 275° |
| 2026-05-05 08:48 | 39.23360 | 109.25243 | 27141 ft | 418 kts | 275° |
| 2026-05-05 08:48 | 39.23496 | 109.21552 | 27145 ft | 417 kts | 275° |
| 2026-05-05 08:48 | 39.23633 | 109.17818 | 27145 ft | 417 kts | 275° |
| 2026-05-05 08:48 | 39.23769 | 109.14076 | 27140 ft | 417 kts | 275° |
| 2026-05-05 08:49 | 39.23903 | 109.10348 | 27139 ft | 416 kts | 275° |
| 2026-05-05 08:49 | 39.24037 | 109.06616 | 27141 ft | 416 kts | 275° |
| 2026-05-05 08:49 | 39.24168 | 109.02889 | 27140 ft | 416 kts | 275° |
| 2026-05-05 08:49 | 39.24299 | 108.99164 | 27138 ft | 416 kts | 274° |
| 2026-05-05 08:50 | 39.24428 | 108.95444 | 27140 ft | 415 kts | 274° |
| 2026-05-05 08:50 | 39.24555 | 108.91773 | 27140 ft | 415 kts | 274° |
| 2026-05-05 08:50 | 39.24682 | 108.88058 | 27139 ft | 415 kts | 274° |
| 2026-05-05 08:50 | 39.24808 | 108.84344 | 27142 ft | 414 kts | 274° |
| 2026-05-05 08:51 | 39.24932 | 108.80634 | 27142 ft | 414 kts | 274° |
| 2026-05-05 08:51 | 39.25056 | 108.76922 | 27139 ft | 414 kts | 274° |
| 2026-05-05 08:51 | 39.25178 | 108.73212 | 27139 ft | 414 kts | 274° |
| 2026-05-05 08:51 | 39.25300 | 108.69506 | 27141 ft | 414 kts | 274° |
| 2026-05-05 08:52 | 39.25420 | 108.65799 | 27140 ft | 413 kts | 274° |
| 2026-05-05 08:52 | 39.25538 | 108.62145 | 27143 ft | 413 kts | 274° |
| 2026-05-05 08:52 | 39.25656 | 108.58441 | 27144 ft | 413 kts | 274° |
| 2026-05-05 08:52 | 39.25773 | 108.54741 | 27145 ft | 413 kts | 274° |
| 2026-05-05 08:53 | 39.25888 | 108.51039 | 27142 ft | 413 kts | 274° |
| 2026-05-05 08:53 | 39.26003 | 108.47341 | 27151 ft | 410 kts | 274° |
| 2026-05-05 08:53 | 39.26113 | 108.43713 | 27014 ft | 401 kts | 274° |
| 2026-05-05 08:53 | 39.26220 | 108.40146 | 26657 ft | 395 kts | 274° |
| 2026-05-05 08:54 | 39.26325 | 108.36624 | 26335 ft | 391 kts | 274° |
| 2026-05-05 08:54 | 39.26429 | 108.33129 | 26021 ft | 390 kts | 274° |
| 2026-05-05 08:54 | 39.26532 | 108.29676 | 25709 ft | 389 kts | 274° |
| 2026-05-05 08:54 | 39.26634 | 108.26190 | 25398 ft | 389 kts | 274° |
| 2026-05-05 08:55 | 39.26734 | 108.22708 | 25091 ft | 388 kts | 274° |
| 2026-05-05 08:55 | 39.26833 | 108.19236 | 24786 ft | 387 kts | 273° |
| 2026-05-05 08:55 | 39.26932 | 108.15767 | 24485 ft | 386 kts | 273° |
| 2026-05-05 08:55 | 39.27028 | 108.12307 | 24191 ft | 385 kts | 273° |
| 2026-05-05 08:56 | 39.27097 | 108.09840 | 23978 ft | 385 kts | 273° |
| 2026-05-05 08:56 | 39.27190 | 108.06395 | 23683 ft | 384 kts | 273° |
| 2026-05-05 08:56 | 39.27283 | 108.02962 | 23383 ft | 382 kts | 273° |
| 2026-05-05 08:56 | 39.27374 | 107.99544 | 23090 ft | 381 kts | 273° |
| 2026-05-05 08:57 | 39.27462 | 107.96183 | 22749 ft | 379 kts | 273° |
| 2026-05-05 08:57 | 39.27551 | 107.92789 | 22401 ft | 377 kts | 273° |
| 2026-05-05 08:57 | 39.27638 | 107.89412 | 22057 ft | 376 kts | 273° |
| 2026-05-05 08:57 | 39.27725 | 107.86045 | 21719 ft | 375 kts | 273° |
| 2026-05-05 08:58 | 39.27810 | 107.82688 | 21382 ft | 374 kts | 272° |
| 2026-05-05 08:58 | 39.27894 | 107.79344 | 21054 ft | 372 kts | 272° |
| 2026-05-05 08:58 | 39.27978 | 107.76008 | 20727 ft | 372 kts | 272° |
| 2026-05-05 08:58 | 39.28062 | 107.72679 | 20402 ft | 371 kts | 272° |
| 2026-05-05 08:59 | 39.28143 | 107.69396 | 20085 ft | 370 kts | 272° |
| 2026-05-05 08:59 | 39.27960 | 107.66086 | 19756 ft | 372 kts | 260° |
| 2026-05-05 08:59 | 39.27258 | 107.62869 | 19455 ft | 373 kts | 252° |
| 2026-05-05 08:59 | 39.26134 | 107.59837 | 19135 ft | 377 kts | 240° |
| 2026-05-05 09:00 | 39.24644 | 107.57050 | 18844 ft | 378 kts | 237° |
| 2026-05-05 09:00 | 39.23108 | 107.54303 | 18527 ft | 378 kts | 237° |
| 2026-05-05 09:00 | 39.21571 | 107.51553 | 18237 ft | 378 kts | 237° |
| 2026-05-05 09:00 | 39.20049 | 107.48795 | 17932 ft | 377 kts | 237° |
| 2026-05-05 09:01 | 39.18540 | 107.46036 | 17603 ft | 376 kts | 237° |
| 2026-05-05 09:01 | 39.17545 | 107.44213 | 17379 ft | 376 kts | 237° |
| 2026-05-05 09:01 | 39.16013 | 107.41401 | 17027 ft | 374 kts | 237° |
| 2026-05-05 09:01 | 39.14524 | 107.38660 | 16700 ft | 373 kts | 237° |
| 2026-05-05 09:02 | 39.13039 | 107.35933 | 16368 ft | 371 kts | 237° |
| 2026-05-05 09:02 | 39.11566 | 107.33234 | 16025 ft | 366 kts | 237° |
| 2026-05-05 09:02 | 39.10113 | 107.30577 | 15692 ft | 359 kts | 237° |
| 2026-05-05 09:02 | 39.08685 | 107.27979 | 15365 ft | 353 kts | 237° |
| 2026-05-05 09:03 | 39.07279 | 107.25421 | 15052 ft | 347 kts | 237° |
| 2026-05-05 09:03 | 39.05896 | 107.22906 | 14736 ft | 342 kts | 237° |
| 2026-05-05 09:03 | 39.04548 | 107.20455 | 14428 ft | 340 kts | 237° |
| 2026-05-05 09:03 | 39.03186 | 107.17979 | 14124 ft | 338 kts | 237° |
| 2026-05-05 09:04 | 39.01833 | 107.15521 | 13822 ft | 336 kts | 237° |
| 2026-05-05 09:04 | 39.00485 | 107.13074 | 13521 ft | 335 kts | 237° |
| 2026-05-05 09:04 | 38.99145 | 107.10641 | 13207 ft | 333 kts | 237° |
| 2026-05-05 09:05 | 38.96275 | 107.05443 | 12497 ft | 331 kts | 237° |
| 2026-05-05 09:05 | 38.94940 | 107.03041 | 12165 ft | 330 kts | 236° |
| 2026-05-05 09:05 | 38.93599 | 107.00661 | 11837 ft | 329 kts | 236° |
| 2026-05-05 09:05 | 38.92255 | 106.98289 | 11518 ft | 328 kts | 236° |
| 2026-05-05 09:06 | 38.90922 | 106.95939 | 11233 ft | 323 kts | 236° |
| 2026-05-05 09:06 | 38.89612 | 106.93627 | 10981 ft | 317 kts | 235° |
| 2026-05-05 09:06 | 38.88342 | 106.91388 | 10732 ft | 312 kts | 235° |
| 2026-05-05 09:06 | 38.87076 | 106.89155 | 10487 ft | 307 kts | 235° |
| 2026-05-05 09:07 | 38.85829 | 106.86955 | 10242 ft | 302 kts | 235° |
| 2026-05-05 09:07 | 38.84602 | 106.84792 | 10006 ft | 298 kts | 235° |
| 2026-05-05 09:07 | 38.83390 | 106.82655 | 9768 ft | 294 kts | 235° |
| 2026-05-05 09:07 | 38.82199 | 106.80557 | 9511 ft | 287 kts | 234° |
| 2026-05-05 09:08 | 38.81043 | 106.78521 | 9267 ft | 277 kts | 234° |
| 2026-05-05 09:08 | 38.79918 | 106.76544 | 9010 ft | 273 kts | 234° |
| 2026-05-05 09:08 | 38.78818 | 106.74611 | 8769 ft | 270 kts | 234° |
| 2026-05-05 09:08 | 38.77715 | 106.72674 | 8523 ft | 268 kts | 234° |
| 2026-05-05 09:09 | 38.76388 | 106.71022 | 8242 ft | 267 kts | 211° |
| 2026-05-05 09:09 | 38.74779 | 106.69862 | 8035 ft | 265 kts | 210° |
| 2026-05-05 09:09 | 38.73170 | 106.68716 | 7780 ft | 264 kts | 210° |
| 2026-05-05 09:09 | 38.71568 | 106.67570 | 7551 ft | 263 kts | 210° |
| 2026-05-05 09:10 | 38.69974 | 106.66423 | 7316 ft | 263 kts | 210° |
| 2026-05-05 09:10 | 38.68382 | 106.65274 | 7074 ft | 262 kts | 210° |
| 2026-05-05 09:10 | 38.66796 | 106.64128 | 6935 ft | 261 kts | 210° |
| 2026-05-05 09:10 | 38.65228 | 106.62995 | 6904 ft | 263 kts | 210° |
| 2026-05-05 09:11 | 38.63649 | 106.61854 | 6875 ft | 258 kts | 210° |
| 2026-05-05 09:11 | 38.62099 | 106.60736 | 6752 ft | 256 kts | 210° |
| 2026-05-05 09:11 | 38.60555 | 106.59622 | 6551 ft | 253 kts | 210° |
| 2026-05-05 09:11 | 38.59031 | 106.58525 | 6359 ft | 250 kts | 209° |
| 2026-05-05 09:12 | 38.57527 | 106.57442 | 6173 ft | 247 kts | 209° |
| 2026-05-05 09:12 | 38.56040 | 106.56371 | 5994 ft | 244 kts | 209° |
| 2026-05-05 09:12 | 38.54583 | 106.55323 | 5902 ft | 237 kts | 209° |
| 2026-05-05 09:12 | 38.53186 | 106.54319 | 5894 ft | 228 kts | 208° |
| 2026-05-05 09:13 | 38.51814 | 106.53371 | 5883 ft | 221 kts | 208° |
| 2026-05-05 09:13 | 38.50489 | 106.52443 | 5857 ft | 213 kts | 208° |
| 2026-05-05 09:13 | 38.49217 | 106.51535 | 5865 ft | 206 kts | 209° |
| 2026-05-05 09:13 | 38.47986 | 106.50649 | 5883 ft | 202 kts | 209° |
| 2026-05-05 09:14 | 38.46763 | 106.49768 | 5893 ft | 202 kts | 209° |
| 2026-05-05 09:14 | 38.45536 | 106.48884 | 5874 ft | 203 kts | 209° |
| 2026-05-05 09:14 | 38.44337 | 106.48021 | 5843 ft | 197 kts | 209° |
| 2026-05-05 09:14 | 38.43163 | 106.47175 | 5651 ft | 189 kts | 209° |
| 2026-05-05 09:15 | 38.42057 | 106.46376 | 5453 ft | 176 kts | 209° |
| 2026-05-05 09:15 | 38.40999 | 106.45616 | 5198 ft | 171 kts | 209° |
| 2026-05-05 09:15 | 38.39985 | 106.44885 | 4989 ft | 165 kts | 209° |
| 2026-05-05 09:15 | 38.38992 | 106.44170 | 4795 ft | 164 kts | 209° |
| 2026-05-05 09:16 | 38.37992 | 106.43449 | 4628 ft | 166 kts | 209° |
| 2026-05-05 09:16 | 38.36981 | 106.42720 | 4453 ft | 167 kts | 209° |
| 2026-05-05 09:16 | 38.35975 | 106.41991 | 4253 ft | 166 kts | 209° |
| 2026-05-05 09:16 | 38.34976 | 106.41269 | 4053 ft | 164 kts | 209° |
| 2026-05-05 09:17 | 38.33985 | 106.40556 | 3829 ft | 163 kts | 208° |
| 2026-05-05 09:17 | 38.33017 | 106.39883 | 3709 ft | 152 kts | 207° |
| 2026-05-05 09:17 | 38.32249 | 106.39326 | 3718 ft | 97 kts | 210° |
| 2026-05-05 09:17 | 38.31859 | 106.39040 | 3722 ft | 27 kts | 212° |
| 2026-05-05 09:18 | 38.31778 | 106.38936 | 3723 ft | 14 kts | 235° |
| 2026-05-05 09:18 | 38.31727 | 106.38832 | 3723 ft | 12 kts | 237° |
| 2026-05-05 09:18 | 38.31723 | 106.38733 | 3723 ft | 13 kts | 294° |
| 2026-05-05 09:18 | 38.31767 | 106.38625 | 3722 ft | 15 kts | 297° |
| 2026-05-05 09:19 | 38.31782 | 106.38524 | 3723 ft | 11 kts | 246° |
| 2026-05-05 09:19 | 38.31787 | 106.38458 | 3723 ft | 5 kts | 302° |
| 2026-05-05 09:19 | 38.31801 | 106.38428 | 3723 ft | 4 kts | 299° |
| 2026-05-05 09:19 | 38.31802 | 106.38425 | 3723 ft | 0 kts | 298° |
| 2026-05-05 09:20 | 38.31803 | 106.38422 | 3723 ft | 0 kts | 298° |